Bellingham International Airport
KBLI : rendu visible

Aérodrome :











RETROUVEZ-NOUS SUR...

 
LOGIN :

S'inscrire | Disclaimer

   EN    FR    IT 

 









Légende :    VFR   VFR Marginal   IFR   IFR Intensif   IFR Très Intensif
Visi : 
Plafond : 
>= 8 km
>= 3000ft
5 à 8 km
1000 à 3000 ft
1500m à 5 km
500 à 1000 ft
800 à 1500m
200 à 500 ft
< 800m
< 200 ft
Symboles :   Orages  Brouillard  Fortes neiges  Fortes précipitations  Vent > 20 kt






- Altitude de l'aérodrome : 170 ft
- Code IATA : BLI


KBLI - Bellingham International

DERNIER METAR :
  • 281154Z AUTO 17008KT 10SM 09/06 A2997 RMK AO2 RAE20 SLP156 P0001 60005 70007 T00890056 10094 20083 $

METARs EXPIRÉS :
  • 281053Z AUTO 17008KT 10SM -RA OVC015 09/06 A2998 RMK AO2 SLP159 P0001 T00890056
  • 280953Z AUTO 17009G16KT 10SM -RA OVC015 09/06 A2999 RMK AO2 RAB0859 SLP165 P0000 T00890056

TAF KBLI
Valide du 28 à 12h jusqu'au 29 à 12h UTC


281153Z 2812/2912 16008KT P6SM -RA OVC015
FM281800 16015G22KT 4SM -RA OVC015



MET'MAP, la Météo Aéronautique d'un coup d'oeil ! - Copyright ORBIFLY Décembre 2007 - Disclaimer

ORBIFLY MET'MAP TEAM :

Programmation & Développement : Alexandra Zaïnal
Sur une idée originale de : Baudouin d'Aumeries
Assistance à la programmation : Marc-Olivier Méhu
Soutien technique & logistique : Manuel Goepfert

Contact : metmap@orbifly.com




SOURCES & CREDITS :

   NOAA       Earth
Advisory